x

North Hecate Strait (46183) Wave Buoy

11:00am - Fri 28th Nov 2014 All times are PST. -8 hours from GMT.

  • Sig Wave height 6.2ft
  • Peak Period 7s
  • Wind
    27mph, 36mph gusts
  • Sea Temp 50°f
  • Air Temp 29°f
  • Sea Pressure 1013mb
  • North Hecate Strait
  • North Hecate Strait

More Historic Weather Station data

Upgrade to MSW Pro to gain access to the past 30 days of data for over 8000 Wavebouys and Weather Stations around the globe.

Join Pro

Comparision Forecast

View Surf forecast
   
Fri 11/28 11:00am 6ft 7s 27 36 mph 1013mb 50f 29f
10:00am 6ft 7s 25 36 mph 1012.5mb 50f 29f
9:00am 7ft 7s 22 31 mph 1011.3mb 50f 31f
8:00am 7ft 7s 31
mph
1010.3mb 50f 32f
7:00am 6.5ft 6s 27 36 mph 1009.9mb 50f 33f
6:00am 6ft 6s 27 34 mph 1009.5mb 50f 33f
5:00am 6.5ft 7s 27 36 mph 1009.1mb 50f 34f
4:00am 6ft 7s 29 36 mph 1008.8mb 50f 35f
3:00am 5.5ft 6s 25 31 mph 1009mb 51f 36f
2:00am 5ft 6s 22 29 mph 1008.8mb 51f 37f
1:00am 5ft 7s 18 22 mph 1008.5mb 50f 37f
12:00am 5ft 6s 16 22 mph 1008.2mb 50f 38f
Thu 11/27 11:00pm 5ft 6s 18 22 mph 1007.5mb 50f 38f
10:00pm 5ft 6s 18 25 mph 1006.6mb 51f 39f
9:00pm 5ft 6s 18 25 mph 1005.6mb 51f 40f
8:00pm 5ft 6s 22 27 mph 1005.1mb 51f 41f
7:00pm 5ft 6s 22 27 mph 1004.2mb 51f 42f
6:00pm 4.5ft 6s 16 20 mph 1003.5mb 51f 43f
5:00pm 4.5ft 5s 13 18 mph 1002.9mb 51f 43f
4:00pm 4ft 5s 16 22 mph 1002.6mb 51f 43f
3:00pm 3.5ft 5s 16 20 mph 1002.1mb 51f 44f
2:00pm 3.5ft 5s 16 22 mph 1002mb 51f 44f
1:00pm 3.5ft 6s 16 20 mph 1002mb 51f 44f
12:00pm 4ft 6s 16 20 mph 1002.2mb 51f 45f
11:00am 4ft 6s 13 18 mph 1002.4mb 51f 45f
10:00am 4.5ft 6s 13 18 mph 1002.3mb 51f 45f
9:00am 4.5ft 6s 13 16 mph 1002.1mb 51f 45f
8:00am 4.5ft 5s 13 16 mph 1002.1mb 51f 45f
7:00am 4.5ft 6s 13 18 mph 1001.8mb 51f 45f
6:00am 5ft 6s 16 18 mph 1001.8mb 51f 46f
5:00am 4.5ft 7s 13 16 mph 1002mb 51f 46f
4:00am 4.5ft 6s 13 16 mph 1002.1mb 51f 46f
3:00am 4.5ft 6s 13 18 mph 1002.5mb 51f 46f
2:00am 4.5ft 7s 13 18 mph 1002.6mb 51f 46f
1:00am 4.5ft 5s 16 20 mph 1002.7mb 51f 46f
12:00am 4.5ft 6s 18 22 mph 1002.9mb 51f 47f
Wed 11/26 11:00pm  -   -  20
mph
1002.9mb 51f 46f
10:00pm 4.5ft 5s 22 25 mph 1003.3mb 51f 46f
9:00pm 4.5ft 6s 20 25 mph 1003.8mb 51f 46f
8:00pm 4ft 5s 20 25 mph 1004.4mb 51f 46f
7:00pm  -   -  20
mph
1005.5mb - 46f
5:00pm 3.5ft 5s 18 20 mph 1007.8mb 51f 46f
4:00pm 2.5ft 5s 18 20 mph 1009mb 51f 46f
3:00pm 2.5ft 5s 13 16 mph 1010.1mb 51f 46f
2:00pm 2.5ft 5s 9 11 mph 1011.5mb 51f 45f
1:00pm 2.5ft 5s 11 13 mph 1012.4mb 51f 44f
12:00pm 2.5ft 4s 9 13 mph 1014.2mb 51f 44f
11:00am 2.5ft 5s 11 13 mph 1015.5mb 51f 45f
10:00am 2.5ft 4s 16 18 mph 1015.9mb 51f 45f
9:00am 2.5ft 4s 13 16 mph 1016.8mb 51f 45f
8:00am 2.5ft 4s 11 13 mph 1017.2mb 51f 45f
7:00am 2.5ft 4s 16 20 mph 1017.1mb 51f 45f
6:00am 2.5ft 4s 16 18 mph 1017.5mb 51f 45f
5:00am 2ft 7s 13 18 mph 1017.9mb 51f 45f
4:00am 1.6ft 7s 16 18 mph 1018.9mb 51f 45f
3:00am 1.6ft 7s 11 13 mph 1019.6mb 51f 46f
2:00am 1.6ft 7s 7 9 mph 1019.8mb 51f 46f
1:00am 2ft 7s 4 7 mph 1020.3mb 51f 46f
12:00am 2ft 7s 7 9 mph 1021mb 51f 46f
Tue 11/25 11:00pm 2ft 7s 4 7 mph 1021.4mb 51f 46f
10:00pm 2ft 8s 7 9 mph 1021.3mb 51f 46f
9:00pm 2ft 8s 11 13 mph 1021.5mb 51f 47f
8:00pm 2ft 8s 13 16 mph 1021.6mb 51f 46f
7:00pm 2ft 4s 13 16 mph 1021.4mb 51f 46f
6:00pm 2.5ft 8s 13 16 mph 1021.7mb 51f 47f
5:00pm 2ft 8s 13 16 mph 1021.7mb 51f 46f
4:00pm 2ft 7s 7 9 mph 1021.9mb 51f 46f
3:00pm 2.5ft 6s 11 13 mph 1021.7mb 51f 47f
2:00pm 2.5ft 4s 7 13 mph 1021.8mb 51f 48f
1:00pm 2.5ft 11s 9 11 mph 1022.3mb 51f 49f
12:00pm 2.5ft 7s 13 16 mph 1022.5mb 51f 48f
11:00am 2.5ft 7s 2 4 mph 1022.8mb 51f 49f
10:00am 2ft 6s 7 9 mph 1022.7mb 51f 49f
9:00am 2ft 7s 9 11 mph 1022.3mb 50f 49f
8:00am 2ft 8s 9 11 mph 1022.1mb 50f 49f
7:00am 2ft 7s 7 9 mph 1021.9mb 51f 49f
6:00am 2.5ft 8s 7 9 mph 1021.7mb 51f 49f
5:00am 2.5ft 7s 7 9 mph 1021.5mb 51f 48f
4:00am 3ft 7s 7 9 mph 1021.2mb 51f 48f
3:00am 3ft 7s 4
mph
1021.1mb 51f 49f
2:00am 3ft 7s 4 7 mph 1021.1mb 51f 49f
1:00am 3ft 7s 7 9 mph 1020.9mb 50f 49f
12:00am 3ft 7s 7 9 mph 1020.6mb 50f 48f
Mon 11/24 11:00pm 3.5ft 7s 4 7 mph 1020.3mb 50f 48f
10:00pm 3.5ft 8s 7 9 mph 1020mb 50f 48f
9:00pm 4ft 8s 7 9 mph 1019.4mb 50f 48f